sensor_id;sensor_type;location;lat;lon;timestamp;temperature;humidity
19878;DHT22;10101;52.204;9.910;2023-12-22T00:01:52;5.10;99.90
19878;DHT22;10101;52.204;9.910;2023-12-22T00:04:18;5.20;99.90
19878;DHT22;10101;52.204;9.910;2023-12-22T00:06:47;5.10;99.90
19878;DHT22;10101;52.204;9.910;2023-12-22T00:09:14;5.10;99.90
19878;DHT22;10101;52.204;9.910;2023-12-22T00:11:41;5.10;99.90
19878;DHT22;10101;52.204;9.910;2023-12-22T00:14:07;5.20;99.90
19878;DHT22;10101;52.204;9.910;2023-12-22T00:16:36;5.10;99.90
19878;DHT22;10101;52.204;9.910;2023-12-22T00:19:03;5.10;99.90
19878;DHT22;10101;52.204;9.910;2023-12-22T00:21:30;5.10;99.90
19878;DHT22;10101;52.204;9.910;2023-12-22T00:23:58;4.90;57.00
19878;DHT22;10101;52.204;9.910;2023-12-22T00:26:25;4.80;1.00
19878;DHT22;10101;52.204;9.910;2023-12-22T00:28:52;4.80;1.00
19878;DHT22;10101;52.204;9.910;2023-12-22T00:31:18;4.70;1.00
19878;DHT22;10101;52.204;9.910;2023-12-22T00:33:45;4.70;1.00
19878;DHT22;10101;52.204;9.910;2023-12-22T00:36:12;4.70;1.00
19878;DHT22;10101;52.204;9.910;2023-12-22T00:38:40;4.80;1.00
19878;DHT22;10101;52.204;9.910;2023-12-22T00:41:08;4.80;1.00
19878;DHT22;10101;52.204;9.910;2023-12-22T00:43:36;4.80;1.00
19878;DHT22;10101;52.204;9.910;2023-12-22T00:46:03;4.90;24.30
19878;DHT22;10101;52.204;9.910;2023-12-22T00:48:29;4.90;99.90
19878;DHT22;10101;52.204;9.910;2023-12-22T00:50:56;4.90;99.90
19878;DHT22;10101;52.204;9.910;2023-12-22T00:53:23;4.90;99.90
19878;DHT22;10101;52.204;9.910;2023-12-22T00:55:49;4.90;99.90
19878;DHT22;10101;52.204;9.910;2023-12-22T00:58:18;5.00;99.90
19878;DHT22;10101;52.204;9.910;2023-12-22T01:00:44;5.00;99.90
19878;DHT22;10101;52.204;9.910;2023-12-22T01:03:11;5.00;99.90
19878;DHT22;10101;52.204;9.910;2023-12-22T01:05:38;5.00;99.90
19878;DHT22;10101;52.204;9.910;2023-12-22T01:08:05;5.00;99.90
19878;DHT22;10101;52.204;9.910;2023-12-22T01:10:32;4.90;99.90
19878;DHT22;10101;52.204;9.910;2023-12-22T01:12:59;4.90;99.90
19878;DHT22;10101;52.204;9.910;2023-12-22T01:15:27;5.00;99.90
19878;DHT22;10101;52.204;9.910;2023-12-22T01:17:54;5.00;99.90
19878;DHT22;10101;52.204;9.910;2023-12-22T01:20:20;5.00;99.90
19878;DHT22;10101;52.204;9.910;2023-12-22T01:22:47;5.00;99.90
19878;DHT22;10101;52.204;9.910;2023-12-22T01:25:14;5.00;99.90
19878;DHT22;10101;52.204;9.910;2023-12-22T01:27:41;5.00;99.90
19878;DHT22;10101;52.204;9.910;2023-12-22T01:30:08;5.00;99.90
19878;DHT22;10101;52.204;9.910;2023-12-22T01:32:36;4.90;1.00
19878;DHT22;10101;52.204;9.910;2023-12-22T01:35:03;4.90;1.00
19878;DHT22;10101;52.204;9.910;2023-12-22T01:37:34;5.00;1.00
19878;DHT22;10101;52.204;9.910;2023-12-22T01:40:01;4.90;1.00
19878;DHT22;10101;52.204;9.910;2023-12-22T01:42:28;5.00;1.00
19878;DHT22;10101;52.204;9.910;2023-12-22T01:44:54;5.00;94.10
19878;DHT22;10101;52.204;9.910;2023-12-22T01:47:21;5.00;71.70
19878;DHT22;10101;52.204;9.910;2023-12-22T01:49:49;5.00;99.90
19878;DHT22;10101;52.204;9.910;2023-12-22T01:52:17;5.00;1.00
19878;DHT22;10101;52.204;9.910;2023-12-22T01:54:45;4.80;1.00
19878;DHT22;10101;52.204;9.910;2023-12-22T01:57:13;4.80;1.00
19878;DHT22;10101;52.204;9.910;2023-12-22T01:59:43;4.80;1.00
19878;DHT22;10101;52.204;9.910;2023-12-22T02:02:10;4.70;1.00
19878;DHT22;10101;52.204;9.910;2023-12-22T02:04:37;4.70;1.00
19878;DHT22;10101;52.204;9.910;2023-12-22T02:07:05;4.70;1.00
19878;DHT22;10101;52.204;9.910;2023-12-22T02:09:34;4.70;1.00
19878;DHT22;10101;52.204;9.910;2023-12-22T02:12:01;4.80;1.00
19878;DHT22;10101;52.204;9.910;2023-12-22T02:14:28;4.90;99.90
19878;DHT22;10101;52.204;9.910;2023-12-22T02:17:03;4.80;99.90
19878;DHT22;10101;52.204;9.910;2023-12-22T02:19:41;4.80;92.10
19878;DHT22;10101;52.204;9.910;2023-12-22T02:22:11;4.90;69.00
19878;DHT22;10101;52.204;9.910;2023-12-22T02:24:40;4.80;99.90
19878;DHT22;10101;52.204;9.910;2023-12-22T02:27:16;4.80;99.90
19878;DHT22;10101;52.204;9.910;2023-12-22T02:29:48;4.90;99.90
19878;DHT22;10101;52.204;9.910;2023-12-22T02:32:21;4.90;1.00
19878;DHT22;10101;52.204;9.910;2023-12-22T02:34:50;4.80;1.00
19878;DHT22;10101;52.204;9.910;2023-12-22T02:37:18;4.70;99.90
19878;DHT22;10101;52.204;9.910;2023-12-22T02:39:47;4.70;99.90
19878;DHT22;10101;52.204;9.910;2023-12-22T02:42:15;4.50;1.00
19878;DHT22;10101;52.204;9.910;2023-12-22T02:44:42;4.40;1.00
19878;DHT22;10101;52.204;9.910;2023-12-22T02:47:08;4.40;1.00
19878;DHT22;10101;52.204;9.910;2023-12-22T02:49:35;4.50;1.00
19878;DHT22;10101;52.204;9.910;2023-12-22T02:52:02;4.40;1.00
19878;DHT22;10101;52.204;9.910;2023-12-22T02:54:29;4.40;1.00
19878;DHT22;10101;52.204;9.910;2023-12-22T02:56:58;4.50;1.00
19878;DHT22;10101;52.204;9.910;2023-12-22T02:59:25;4.40;1.00
19878;DHT22;10101;52.204;9.910;2023-12-22T03:01:54;4.50;1.00
19878;DHT22;10101;52.204;9.910;2023-12-22T03:04:20;4.60;1.00
19878;DHT22;10101;52.204;9.910;2023-12-22T03:06:47;4.60;1.00
19878;DHT22;10101;52.204;9.910;2023-12-22T03:09:14;4.60;1.00
19878;DHT22;10101;52.204;9.910;2023-12-22T03:11:40;4.70;99.90
19878;DHT22;10101;52.204;9.910;2023-12-22T03:14:08;4.60;99.90
19878;DHT22;10101;52.204;9.910;2023-12-22T03:16:35;4.60;99.90
19878;DHT22;10101;52.204;9.910;2023-12-22T03:19:02;4.50;99.90
19878;DHT22;10101;52.204;9.910;2023-12-22T03:21:28;4.60;99.90
19878;DHT22;10101;52.204;9.910;2023-12-22T03:23:55;4.60;99.90
19878;DHT22;10101;52.204;9.910;2023-12-22T03:26:22;4.50;12.40
19878;DHT22;10101;52.204;9.910;2023-12-22T03:28:48;4.60;77.60
19878;DHT22;10101;52.204;9.910;2023-12-22T03:31:16;4.50;1.00
19878;DHT22;10101;52.204;9.910;2023-12-22T03:33:43;4.50;1.00
19878;DHT22;10101;52.204;9.910;2023-12-22T03:36:10;4.60;38.30
19878;DHT22;10101;52.204;9.910;2023-12-22T03:38:37;4.60;8.10
19878;DHT22;10101;52.204;9.910;2023-12-22T03:41:03;4.70;8.80
19878;DHT22;10101;52.204;9.910;2023-12-22T03:43:30;4.70;1.00
19878;DHT22;10101;52.204;9.910;2023-12-22T03:45:57;4.70;1.00
19878;DHT22;10101;52.204;9.910;2023-12-22T03:48:25;4.70;1.00
19878;DHT22;10101;52.204;9.910;2023-12-22T03:50:52;4.60;1.00
19878;DHT22;10101;52.204;9.910;2023-12-22T03:53:19;4.60;1.00
19878;DHT22;10101;52.204;9.910;2023-12-22T03:55:46;4.50;1.00
19878;DHT22;10101;52.204;9.910;2023-12-22T03:58:12;4.50;1.00
19878;DHT22;10101;52.204;9.910;2023-12-22T04:00:39;4.60;1.00
19878;DHT22;10101;52.204;9.910;2023-12-22T04:03:06;4.60;1.00
19878;DHT22;10101;52.204;9.910;2023-12-22T04:05:34;4.50;99.90
19878;DHT22;10101;52.204;9.910;2023-12-22T04:08:00;4.50;99.90
19878;DHT22;10101;52.204;9.910;2023-12-22T04:10:27;4.60;99.90
19878;DHT22;10101;52.204;9.910;2023-12-22T04:12:54;4.70;1.00
19878;DHT22;10101;52.204;9.910;2023-12-22T04:15:21;4.60;99.90
19878;DHT22;10101;52.204;9.910;2023-12-22T04:17:47;4.40;69.60
19878;DHT22;10101;52.204;9.910;2023-12-22T04:20:15;4.40;1.00
19878;DHT22;10101;52.204;9.910;2023-12-22T04:22:43;4.30;22.30
19878;DHT22;10101;52.204;9.910;2023-12-22T04:25:09;4.30;2.70
19878;DHT22;10101;52.204;9.910;2023-12-22T04:27:36;4.40;99.90
19878;DHT22;10101;52.204;9.910;2023-12-22T04:30:03;4.50;99.90
19878;DHT22;10101;52.204;9.910;2023-12-22T04:32:30;4.40;99.90
19878;DHT22;10101;52.204;9.910;2023-12-22T04:34:57;4.60;99.90
19878;DHT22;10101;52.204;9.910;2023-12-22T04:37:24;4.50;99.90
19878;DHT22;10101;52.204;9.910;2023-12-22T04:39:52;4.70;99.90
19878;DHT22;10101;52.204;9.910;2023-12-22T04:42:18;4.70;99.90
19878;DHT22;10101;52.204;9.910;2023-12-22T04:44:45;4.70;99.90
19878;DHT22;10101;52.204;9.910;2023-12-22T04:47:12;4.70;99.90
19878;DHT22;10101;52.204;9.910;2023-12-22T04:49:39;4.70;99.90
19878;DHT22;10101;52.204;9.910;2023-12-22T04:52:05;4.80;62.90
19878;DHT22;10101;52.204;9.910;2023-12-22T04:54:32;4.90;99.90
19878;DHT22;10101;52.204;9.910;2023-12-22T04:57:00;4.80;99.90
19878;DHT22;10101;52.204;9.910;2023-12-22T04:59:27;4.90;56.80
19878;DHT22;10101;52.204;9.910;2023-12-22T05:01:54;5.00;99.90
19878;DHT22;10101;52.204;9.910;2023-12-22T05:04:20;5.00;97.30
19878;DHT22;10101;52.204;9.910;2023-12-22T05:06:47;5.00;99.90
19878;DHT22;10101;52.204;9.910;2023-12-22T05:09:14;5.00;22.40
19878;DHT22;10101;52.204;9.910;2023-12-22T05:11:42;5.10;1.00
19878;DHT22;10101;52.204;9.910;2023-12-22T05:14:10;5.10;1.00
19878;DHT22;10101;52.204;9.910;2023-12-22T05:16:37;5.10;1.00
19878;DHT22;10101;52.204;9.910;2023-12-22T05:19:03;5.10;1.00
19878;DHT22;10101;52.204;9.910;2023-12-22T05:21:30;5.00;1.00
19878;DHT22;10101;52.204;9.910;2023-12-22T05:23:57;5.10;1.00
19878;DHT22;10101;52.204;9.910;2023-12-22T05:26:24;5.00;1.00
19878;DHT22;10101;52.204;9.910;2023-12-22T05:28:55;4.90;1.00
19878;DHT22;10101;52.204;9.910;2023-12-22T05:31:23;4.70;1.00
19878;DHT22;10101;52.204;9.910;2023-12-22T05:33:50;4.60;99.90
19878;DHT22;10101;52.204;9.910;2023-12-22T05:36:17;4.50;99.90
19878;DHT22;10101;52.204;9.910;2023-12-22T05:38:44;4.60;99.90
19878;DHT22;10101;52.204;9.910;2023-12-22T05:41:11;4.70;1.00
19878;DHT22;10101;52.204;9.910;2023-12-22T05:43:38;4.60;99.90
19878;DHT22;10101;52.204;9.910;2023-12-22T05:46:04;4.50;99.90
19878;DHT22;10101;52.204;9.910;2023-12-22T05:48:35;4.40;99.90
19878;DHT22;10101;52.204;9.910;2023-12-22T05:51:02;4.40;99.90
19878;DHT22;10101;52.204;9.910;2023-12-22T05:53:32;4.60;1.00
19878;DHT22;10101;52.204;9.910;2023-12-22T05:55:59;4.60;1.00
19878;DHT22;10101;52.204;9.910;2023-12-22T05:58:26;4.80;1.00
19878;DHT22;10101;52.204;9.910;2023-12-22T06:00:53;4.90;37.90
19878;DHT22;10101;52.204;9.910;2023-12-22T06:03:19;4.90;1.00
19878;DHT22;10101;52.204;9.910;2023-12-22T06:05:47;4.90;1.00
19878;DHT22;10101;52.204;9.910;2023-12-22T06:08:14;4.80;1.00
19878;DHT22;10101;52.204;9.910;2023-12-22T06:10:41;4.80;1.00
19878;DHT22;10101;52.204;9.910;2023-12-22T06:13:08;4.90;1.00
19878;DHT22;10101;52.204;9.910;2023-12-22T06:15:34;5.00;1.00
19878;DHT22;10101;52.204;9.910;2023-12-22T06:18:01;4.90;1.00
19878;DHT22;10101;52.204;9.910;2023-12-22T06:20:28;5.00;1.00
19878;DHT22;10101;52.204;9.910;2023-12-22T06:22:56;4.90;1.00
19878;DHT22;10101;52.204;9.910;2023-12-22T06:25:23;4.90;1.00
19878;DHT22;10101;52.204;9.910;2023-12-22T06:27:50;4.90;1.00
19878;DHT22;10101;52.204;9.910;2023-12-22T06:30:16;4.90;1.00
19878;DHT22;10101;52.204;9.910;2023-12-22T06:32:43;4.80;1.00
19878;DHT22;10101;52.204;9.910;2023-12-22T06:35:10;4.50;99.90
19878;DHT22;10101;52.204;9.910;2023-12-22T06:37:37;4.20;1.00
19878;DHT22;10101;52.204;9.910;2023-12-22T06:40:06;4.00;99.90
19878;DHT22;10101;52.204;9.910;2023-12-22T06:42:33;3.40;99.90
19878;DHT22;10101;52.204;9.910;2023-12-22T06:45:00;3.20;1.00
19878;DHT22;10101;52.204;9.910;2023-12-22T06:47:26;3.00;34.60
19878;DHT22;10101;52.204;9.910;2023-12-22T06:49:53;3.00;99.90
19878;DHT22;10101;52.204;9.910;2023-12-22T06:52:20;3.00;1.00
19878;DHT22;10101;52.204;9.910;2023-12-22T06:54:47;2.80;66.80
19878;DHT22;10101;52.204;9.910;2023-12-22T06:57:15;2.20;99.90
19878;DHT22;10101;52.204;9.910;2023-12-22T06:59:42;1.90;1.00
19878;DHT22;10101;52.204;9.910;2023-12-22T07:02:09;1.90;1.00
19878;DHT22;10101;52.204;9.910;2023-12-22T07:04:36;1.90;1.00
19878;DHT22;10101;52.204;9.910;2023-12-22T07:07:02;2.00;99.90
19878;DHT22;10101;52.204;9.910;2023-12-22T07:09:30;2.10;1.00
19878;DHT22;10101;52.204;9.910;2023-12-22T07:11:57;2.20;1.00
19878;DHT22;10101;52.204;9.910;2023-12-22T07:14:25;2.20;1.00
19878;DHT22;10101;52.204;9.910;2023-12-22T07:16:52;2.20;56.60
19878;DHT22;10101;52.204;9.910;2023-12-22T07:19:19;2.20;99.90
19878;DHT22;10101;52.204;9.910;2023-12-22T07:21:45;2.20;99.90
19878;DHT22;10101;52.204;9.910;2023-12-22T07:24:12;2.20;99.90
19878;DHT22;10101;52.204;9.910;2023-12-22T07:26:39;2.20;99.90
19878;DHT22;10101;52.204;9.910;2023-12-22T07:29:06;2.40;99.90
19878;DHT22;10101;52.204;9.910;2023-12-22T07:31:34;2.40;99.90
19878;DHT22;10101;52.204;9.910;2023-12-22T07:34:01;2.60;99.90
19878;DHT22;10101;52.204;9.910;2023-12-22T07:36:27;2.90;99.90
19878;DHT22;10101;52.204;9.910;2023-12-22T07:38:54;3.40;99.90
19878;DHT22;10101;52.204;9.910;2023-12-22T07:41:22;3.80;99.90
19878;DHT22;10101;52.204;9.910;2023-12-22T07:43:49;4.00;99.90
19878;DHT22;10101;52.204;9.910;2023-12-22T07:46:19;4.20;1.00
19878;DHT22;10101;52.204;9.910;2023-12-22T07:48:49;4.30;99.90
19878;DHT22;10101;52.204;9.910;2023-12-22T07:51:15;4.30;1.00
19878;DHT22;10101;52.204;9.910;2023-12-22T07:53:42;4.30;99.90
19878;DHT22;10101;52.204;9.910;2023-12-22T07:56:10;4.20;98.40
19878;DHT22;10101;52.204;9.910;2023-12-22T07:58:37;4.20;1.00
19878;DHT22;10101;52.204;9.910;2023-12-22T08:01:04;4.10;1.00
19878;DHT22;10101;52.204;9.910;2023-12-22T08:03:31;4.40;99.90
19878;DHT22;10101;52.204;9.910;2023-12-22T08:05:59;4.20;1.00
19878;DHT22;10101;52.204;9.910;2023-12-22T08:08:26;4.10;1.00
19878;DHT22;10101;52.204;9.910;2023-12-22T08:10:53;4.10;99.90
19878;DHT22;10101;52.204;9.910;2023-12-22T08:13:19;4.20;99.90
19878;DHT22;10101;52.204;9.910;2023-12-22T08:15:46;4.20;99.90
19878;DHT22;10101;52.204;9.910;2023-12-22T08:18:13;4.40;1.00
19878;DHT22;10101;52.204;9.910;2023-12-22T08:20:40;4.80;99.90
19878;DHT22;10101;52.204;9.910;2023-12-22T08:23:08;4.70;1.00
19878;DHT22;10101;52.204;9.910;2023-12-22T08:25:34;4.70;99.90
19878;DHT22;10101;52.204;9.910;2023-12-22T08:28:01;4.90;1.00
19878;DHT22;10101;52.204;9.910;2023-12-22T08:30:28;4.90;99.90
19878;DHT22;10101;52.204;9.910;2023-12-22T08:32:54;4.80;46.90
19878;DHT22;10101;52.204;9.910;2023-12-22T08:35:21;4.80;1.00
19878;DHT22;10101;52.204;9.910;2023-12-22T08:37:48;4.90;99.90
19878;DHT22;10101;52.204;9.910;2023-12-22T08:40:16;5.00;1.00
19878;DHT22;10101;52.204;9.910;2023-12-22T08:42:43;5.20;99.90
19878;DHT22;10101;52.204;9.910;2023-12-22T08:45:09;5.10;99.90
19878;DHT22;10101;52.204;9.910;2023-12-22T08:47:36;5.10;1.00
19878;DHT22;10101;52.204;9.910;2023-12-22T08:50:03;5.20;1.00
19878;DHT22;10101;52.204;9.910;2023-12-22T08:52:33;5.40;99.90
19878;DHT22;10101;52.204;9.910;2023-12-22T08:55:00;5.30;99.90
19878;DHT22;10101;52.204;9.910;2023-12-22T08:57:28;5.50;1.00
19878;DHT22;10101;52.204;9.910;2023-12-22T08:59:55;5.60;1.00
19878;DHT22;10101;52.204;9.910;2023-12-22T09:02:22;5.50;1.00
19878;DHT22;10101;52.204;9.910;2023-12-22T09:04:48;5.60;1.00
19878;DHT22;10101;52.204;9.910;2023-12-22T09:07:16;5.70;99.90
19878;DHT22;10101;52.204;9.910;2023-12-22T09:09:43;5.70;99.90
19878;DHT22;10101;52.204;9.910;2023-12-22T09:12:09;5.80;99.90
19878;DHT22;10101;52.204;9.910;2023-12-22T09:14:37;5.80;13.40
19878;DHT22;10101;52.204;9.910;2023-12-22T09:17:04;5.80;1.00
19878;DHT22;10101;52.204;9.910;2023-12-22T09:19:32;5.80;1.00
19878;DHT22;10101;52.204;9.910;2023-12-22T09:21:59;5.80;1.00
19878;DHT22;10101;52.204;9.910;2023-12-22T09:24:25;5.80;1.00
19878;DHT22;10101;52.204;9.910;2023-12-22T09:26:52;5.90;1.00
19878;DHT22;10101;52.204;9.910;2023-12-22T09:29:19;5.90;1.00
19878;DHT22;10101;52.204;9.910;2023-12-22T09:31:48;6.00;1.00
19878;DHT22;10101;52.204;9.910;2023-12-22T09:34:15;6.00;1.00
19878;DHT22;10101;52.204;9.910;2023-12-22T09:36:42;6.10;1.00
19878;DHT22;10101;52.204;9.910;2023-12-22T09:39:08;6.10;1.00
19878;DHT22;10101;52.204;9.910;2023-12-22T09:41:35;6.00;99.90
19878;DHT22;10101;52.204;9.910;2023-12-22T09:44:04;5.90;80.40
19878;DHT22;10101;52.204;9.910;2023-12-22T09:46:33;5.90;1.00
19878;DHT22;10101;52.204;9.910;2023-12-22T09:49:02;5.80;1.00
19878;DHT22;10101;52.204;9.910;2023-12-22T09:51:30;5.80;1.00
19878;DHT22;10101;52.204;9.910;2023-12-22T09:53:57;5.70;1.00
19878;DHT22;10101;52.204;9.910;2023-12-22T09:56:25;5.70;1.00
19878;DHT22;10101;52.204;9.910;2023-12-22T09:58:53;5.70;1.00
19878;DHT22;10101;52.204;9.910;2023-12-22T10:01:21;5.70;1.00
19878;DHT22;10101;52.204;9.910;2023-12-22T10:03:49;5.70;1.00
19878;DHT22;10101;52.204;9.910;2023-12-22T10:06:17;5.60;1.00
19878;DHT22;10101;52.204;9.910;2023-12-22T10:08:45;5.60;1.00
19878;DHT22;10101;52.204;9.910;2023-12-22T10:11:16;5.50;99.90
19878;DHT22;10101;52.204;9.910;2023-12-22T10:13:44;5.60;99.90
19878;DHT22;10101;52.204;9.910;2023-12-22T10:16:10;5.60;99.90
19878;DHT22;10101;52.204;9.910;2023-12-22T10:18:37;5.50;99.90
19878;DHT22;10101;52.204;9.910;2023-12-22T10:21:04;5.50;1.00
19878;DHT22;10101;52.204;9.910;2023-12-22T10:23:32;5.50;1.00
19878;DHT22;10101;52.204;9.910;2023-12-22T10:25:59;5.50;1.00
19878;DHT22;10101;52.204;9.910;2023-12-22T10:28:27;5.60;20.20
19878;DHT22;10101;52.204;9.910;2023-12-22T10:30:54;5.60;1.00
19878;DHT22;10101;52.204;9.910;2023-12-22T10:33:24;5.60;13.90
19878;DHT22;10101;52.204;9.910;2023-12-22T10:35:53;5.50;1.00
19878;DHT22;10101;52.204;9.910;2023-12-22T10:38:20;5.50;1.00
19878;DHT22;10101;52.204;9.910;2023-12-22T10:40:49;5.60;1.00
19878;DHT22;10101;52.204;9.910;2023-12-22T10:43:16;5.50;84.60
19878;DHT22;10101;52.204;9.910;2023-12-22T10:45:43;5.60;98.40
19878;DHT22;10101;52.204;9.910;2023-12-22T10:48:10;5.60;99.90
19878;DHT22;10101;52.204;9.910;2023-12-22T10:50:39;5.60;99.90
19878;DHT22;10101;52.204;9.910;2023-12-22T10:53:06;5.60;99.90
19878;DHT22;10101;52.204;9.910;2023-12-22T10:55:34;5.70;99.90
19878;DHT22;10101;52.204;9.910;2023-12-22T10:58:03;5.80;1.00
19878;DHT22;10101;52.204;9.910;2023-12-22T11:00:32;5.90;1.00
19878;DHT22;10101;52.204;9.910;2023-12-22T11:03:02;5.90;1.00
19878;DHT22;10101;52.204;9.910;2023-12-22T11:05:33;6.00;1.00
19878;DHT22;10101;52.204;9.910;2023-12-22T11:08:00;6.10;1.00
19878;DHT22;10101;52.204;9.910;2023-12-22T11:10:30;6.10;1.00
19878;DHT22;10101;52.204;9.910;2023-12-22T11:12:57;6.10;1.00
19878;DHT22;10101;52.204;9.910;2023-12-22T11:15:26;6.10;1.00
19878;DHT22;10101;52.204;9.910;2023-12-22T11:17:56;6.20;1.00
19878;DHT22;10101;52.204;9.910;2023-12-22T11:20:24;6.20;1.00
19878;DHT22;10101;52.204;9.910;2023-12-22T11:22:51;6.40;1.00
19878;DHT22;10101;52.204;9.910;2023-12-22T11:25:19;6.40;1.00
19878;DHT22;10101;52.204;9.910;2023-12-22T11:27:48;6.40;1.00
19878;DHT22;10101;52.204;9.910;2023-12-22T11:30:17;6.40;1.00
19878;DHT22;10101;52.204;9.910;2023-12-22T11:32:47;6.60;99.50
19878;DHT22;10101;52.204;9.910;2023-12-22T11:35:16;6.60;1.00
19878;DHT22;10101;52.204;9.910;2023-12-22T11:37:43;6.60;1.00
19878;DHT22;10101;52.204;9.910;2023-12-22T11:40:11;6.60;1.00
19878;DHT22;10101;52.204;9.910;2023-12-22T11:42:41;6.70;99.90
19878;DHT22;10101;52.204;9.910;2023-12-22T11:45:10;6.70;99.90
19878;DHT22;10101;52.204;9.910;2023-12-22T11:47:37;6.80;99.90
19878;DHT22;10101;52.204;9.910;2023-12-22T11:50:08;6.70;95.40
19878;DHT22;10101;52.204;9.910;2023-12-22T11:52:35;6.70;1.00
19878;DHT22;10101;52.204;9.910;2023-12-22T11:55:02;6.70;1.00
19878;DHT22;10101;52.204;9.910;2023-12-22T11:57:30;6.70;1.00
19878;DHT22;10101;52.204;9.910;2023-12-22T11:59:57;6.80;1.00
19878;DHT22;10101;52.204;9.910;2023-12-22T12:02:24;6.70;1.00
19878;DHT22;10101;52.204;9.910;2023-12-22T12:04:51;6.70;1.00
19878;DHT22;10101;52.204;9.910;2023-12-22T12:07:38;6.70;1.00
19878;DHT22;10101;52.204;9.910;2023-12-22T12:10:07;6.60;99.90
19878;DHT22;10101;52.204;9.910;2023-12-22T12:12:33;6.70;1.00
19878;DHT22;10101;52.204;9.910;2023-12-22T12:15:07;6.70;1.00
19878;DHT22;10101;52.204;9.910;2023-12-22T12:17:37;6.80;1.00
19878;DHT22;10101;52.204;9.910;2023-12-22T12:20:06;6.80;1.00
19878;DHT22;10101;52.204;9.910;2023-12-22T12:22:33;6.80;1.00
19878;DHT22;10101;52.204;9.910;2023-12-22T12:25:01;6.70;1.00
19878;DHT22;10101;52.204;9.910;2023-12-22T12:27:28;6.70;1.00
19878;DHT22;10101;52.204;9.910;2023-12-22T12:29:56;6.70;99.90
19878;DHT22;10101;52.204;9.910;2023-12-22T12:32:23;6.60;99.90
19878;DHT22;10101;52.204;9.910;2023-12-22T12:34:51;6.70;1.00
19878;DHT22;10101;52.204;9.910;2023-12-22T12:37:18;6.70;1.00
19878;DHT22;10101;52.204;9.910;2023-12-22T12:39:46;6.70;1.00
19878;DHT22;10101;52.204;9.910;2023-12-22T12:42:16;6.70;1.00
19878;DHT22;10101;52.204;9.910;2023-12-22T12:44:43;6.70;99.90
19878;DHT22;10101;52.204;9.910;2023-12-22T12:47:14;6.80;1.00
19878;DHT22;10101;52.204;9.910;2023-12-22T12:49:41;6.80;1.00
19878;DHT22;10101;52.204;9.910;2023-12-22T12:52:12;6.70;1.00
19878;DHT22;10101;52.204;9.910;2023-12-22T12:54:39;6.70;99.90
19878;DHT22;10101;52.204;9.910;2023-12-22T12:57:06;6.70;1.00
19878;DHT22;10101;52.204;9.910;2023-12-22T12:59:34;6.80;1.00
19878;DHT22;10101;52.204;9.910;2023-12-22T13:02:01;6.80;1.00
19878;DHT22;10101;52.204;9.910;2023-12-22T13:04:36;6.80;1.00
19878;DHT22;10101;52.204;9.910;2023-12-22T13:07:04;6.80;1.00
19878;DHT22;10101;52.204;9.910;2023-12-22T13:09:32;6.80;1.00
19878;DHT22;10101;52.204;9.910;2023-12-22T13:11:59;6.80;31.00
19878;DHT22;10101;52.204;9.910;2023-12-22T13:14:26;6.80;1.00
19878;DHT22;10101;52.204;9.910;2023-12-22T13:16:56;6.80;1.00
19878;DHT22;10101;52.204;9.910;2023-12-22T13:19:23;6.70;1.00
19878;DHT22;10101;52.204;9.910;2023-12-22T13:21:51;6.80;1.00
19878;DHT22;10101;52.204;9.910;2023-12-22T13:24:17;6.70;1.00
19878;DHT22;10101;52.204;9.910;2023-12-22T13:26:45;6.70;1.00
19878;DHT22;10101;52.204;9.910;2023-12-22T13:29:12;6.70;1.00
19878;DHT22;10101;52.204;9.910;2023-12-22T13:31:40;6.70;1.00
19878;DHT22;10101;52.204;9.910;2023-12-22T13:34:10;6.70;1.00
19878;DHT22;10101;52.204;9.910;2023-12-22T13:36:37;6.70;1.00
19878;DHT22;10101;52.204;9.910;2023-12-22T13:39:05;6.60;1.00
19878;DHT22;10101;52.204;9.910;2023-12-22T13:41:33;6.60;99.90
19878;DHT22;10101;52.204;9.910;2023-12-22T13:44:03;6.60;1.00
19878;DHT22;10101;52.204;9.910;2023-12-22T13:46:30;6.60;1.00
19878;DHT22;10101;52.204;9.910;2023-12-22T13:48:57;6.60;1.00
19878;DHT22;10101;52.204;9.910;2023-12-22T13:51:25;6.60;99.90
19878;DHT22;10101;52.204;9.910;2023-12-22T13:53:52;6.60;1.00
19878;DHT22;10101;52.204;9.910;2023-12-22T13:56:19;6.60;1.00
19878;DHT22;10101;52.204;9.910;2023-12-22T13:58:46;6.60;1.00
19878;DHT22;10101;52.204;9.910;2023-12-22T14:01:14;6.60;99.90
19878;DHT22;10101;52.204;9.910;2023-12-22T14:03:41;6.60;1.00
19878;DHT22;10101;52.204;9.910;2023-12-22T14:06:08;6.60;1.00
19878;DHT22;10101;52.204;9.910;2023-12-22T14:08:36;6.50;1.00
19878;DHT22;10101;52.204;9.910;2023-12-22T14:11:03;6.50;1.00
19878;DHT22;10101;52.204;9.910;2023-12-22T14:13:30;6.50;1.00
19878;DHT22;10101;52.204;9.910;2023-12-22T14:15:57;6.50;1.00
19878;DHT22;10101;52.204;9.910;2023-12-22T14:18:24;6.40;99.90
19878;DHT22;10101;52.204;9.910;2023-12-22T14:20:50;6.40;99.90
19878;DHT22;10101;52.204;9.910;2023-12-22T14:23:17;6.40;99.90
19878;DHT22;10101;52.204;9.910;2023-12-22T14:25:45;6.40;99.90
19878;DHT22;10101;52.204;9.910;2023-12-22T14:28:12;6.40;99.90
19878;DHT22;10101;52.204;9.910;2023-12-22T14:30:39;6.40;99.90
19878;DHT22;10101;52.204;9.910;2023-12-22T14:33:05;6.40;1.00
19878;DHT22;10101;52.204;9.910;2023-12-22T14:35:32;6.40;1.00
19878;DHT22;10101;52.204;9.910;2023-12-22T14:37:59;6.40;1.00
19878;DHT22;10101;52.204;9.910;2023-12-22T14:40:25;6.40;1.00
19878;DHT22;10101;52.204;9.910;2023-12-22T14:42:53;6.40;1.00
19878;DHT22;10101;52.204;9.910;2023-12-22T14:45:20;6.40;1.00
19878;DHT22;10101;52.204;9.910;2023-12-22T14:47:48;6.40;1.00
19878;DHT22;10101;52.204;9.910;2023-12-22T14:50:15;6.30;1.00
19878;DHT22;10101;52.204;9.910;2023-12-22T14:52:42;6.30;1.00
19878;DHT22;10101;52.204;9.910;2023-12-22T14:55:10;6.30;1.00
19878;DHT22;10101;52.204;9.910;2023-12-22T14:57:37;6.30;1.00
19878;DHT22;10101;52.204;9.910;2023-12-22T15:00:06;6.40;1.00
19878;DHT22;10101;52.204;9.910;2023-12-22T15:02:34;6.30;1.00
19878;DHT22;10101;52.204;9.910;2023-12-22T15:05:01;6.30;1.00
19878;DHT22;10101;52.204;9.910;2023-12-22T15:07:29;6.40;1.00
19878;DHT22;10101;52.204;9.910;2023-12-22T15:09:56;6.40;1.00
19878;DHT22;10101;52.204;9.910;2023-12-22T15:12:24;6.40;1.00
19878;DHT22;10101;52.204;9.910;2023-12-22T15:14:51;6.40;1.00
19878;DHT22;10101;52.204;9.910;2023-12-22T15:17:19;6.40;1.00
19878;DHT22;10101;52.204;9.910;2023-12-22T15:19:45;6.60;1.00
19878;DHT22;10101;52.204;9.910;2023-12-22T15:22:12;6.50;99.20
19878;DHT22;10101;52.204;9.910;2023-12-22T15:24:40;6.50;1.00
19878;DHT22;10101;52.204;9.910;2023-12-22T15:27:08;6.40;1.00
19878;DHT22;10101;52.204;9.910;2023-12-22T15:29:35;6.40;1.00
19878;DHT22;10101;52.204;9.910;2023-12-22T15:32:02;6.40;1.00
19878;DHT22;10101;52.204;9.910;2023-12-22T15:34:30;6.40;1.00
19878;DHT22;10101;52.204;9.910;2023-12-22T15:37:00;6.30;1.00
19878;DHT22;10101;52.204;9.910;2023-12-22T15:39:26;6.20;1.00
19878;DHT22;10101;52.204;9.910;2023-12-22T15:41:53;6.20;1.00
19878;DHT22;10101;52.204;9.910;2023-12-22T15:44:20;6.20;10.50
19878;DHT22;10101;52.204;9.910;2023-12-22T15:46:47;6.10;99.90
19878;DHT22;10101;52.204;9.910;2023-12-22T15:49:13;6.10;33.90
19878;DHT22;10101;52.204;9.910;2023-12-22T15:51:41;6.10;99.90
19878;DHT22;10101;52.204;9.910;2023-12-22T15:54:08;6.10;99.90
19878;DHT22;10101;52.204;9.910;2023-12-22T15:56:35;6.20;1.00